sensor_id;sensor_type;location;lat;lon;timestamp;P1;durP1;ratioP1;P2;durP2;ratioP2
22160;SDS011;49035;48.812;11.762;2023-12-07T00:00:36;25.10;;;13.00;;
22160;SDS011;49035;48.812;11.762;2023-12-07T00:03:01;26.20;;;13.73;;
22160;SDS011;49035;48.812;11.762;2023-12-07T00:05:27;29.70;;;15.80;;
22160;SDS011;49035;48.812;11.762;2023-12-07T00:07:53;27.43;;;14.83;;
22160;SDS011;49035;48.812;11.762;2023-12-07T00:10:18;27.87;;;13.97;;
22160;SDS011;49035;48.812;11.762;2023-12-07T00:12:44;24.67;;;13.13;;
22160;SDS011;49035;48.812;11.762;2023-12-07T00:15:10;28.33;;;13.63;;
22160;SDS011;49035;48.812;11.762;2023-12-07T00:17:35;24.67;;;12.83;;
22160;SDS011;49035;48.812;11.762;2023-12-07T00:20:01;23.07;;;12.53;;
22160;SDS011;49035;48.812;11.762;2023-12-07T00:22:29;26.00;;;13.83;;
22160;SDS011;49035;48.812;11.762;2023-12-07T00:24:55;22.30;;;12.40;;
22160;SDS011;49035;48.812;11.762;2023-12-07T00:27:20;31.43;;;14.43;;
22160;SDS011;49035;48.812;11.762;2023-12-07T00:29:46;28.70;;;14.03;;
22160;SDS011;49035;48.812;11.762;2023-12-07T00:32:11;25.50;;;13.73;;
22160;SDS011;49035;48.812;11.762;2023-12-07T00:34:37;27.47;;;14.47;;
22160;SDS011;49035;48.812;11.762;2023-12-07T00:37:03;25.80;;;13.60;;
22160;SDS011;49035;48.812;11.762;2023-12-07T00:39:28;25.87;;;12.73;;
22160;SDS011;49035;48.812;11.762;2023-12-07T00:41:54;24.03;;;13.40;;
22160;SDS011;49035;48.812;11.762;2023-12-07T00:44:19;23.67;;;12.63;;
22160;SDS011;49035;48.812;11.762;2023-12-07T00:46:45;27.20;;;13.53;;
22160;SDS011;49035;48.812;11.762;2023-12-07T00:49:11;27.50;;;14.83;;
22160;SDS011;49035;48.812;11.762;2023-12-07T00:51:37;29.13;;;14.50;;
22160;SDS011;49035;48.812;11.762;2023-12-07T00:54:02;26.40;;;13.03;;
22160;SDS011;49035;48.812;11.762;2023-12-07T00:56:28;30.37;;;14.67;;
22160;SDS011;49035;48.812;11.762;2023-12-07T00:58:54;28.53;;;14.10;;
22160;SDS011;49035;48.812;11.762;2023-12-07T01:01:19;25.67;;;13.63;;
22160;SDS011;49035;48.812;11.762;2023-12-07T01:03:45;27.80;;;13.47;;
22160;SDS011;49035;48.812;11.762;2023-12-07T01:06:10;27.77;;;13.30;;
22160;SDS011;49035;48.812;11.762;2023-12-07T01:08:36;27.57;;;14.40;;
22160;SDS011;49035;48.812;11.762;2023-12-07T01:11:03;26.13;;;14.47;;
22160;SDS011;49035;48.812;11.762;2023-12-07T01:13:29;34.43;;;15.60;;
22160;SDS011;49035;48.812;11.762;2023-12-07T01:15:55;30.83;;;15.33;;
22160;SDS011;49035;48.812;11.762;2023-12-07T01:18:21;27.67;;;14.67;;
22160;SDS011;49035;48.812;11.762;2023-12-07T01:20:46;29.93;;;14.50;;
22160;SDS011;49035;48.812;11.762;2023-12-07T01:23:13;30.17;;;14.07;;
22160;SDS011;49035;48.812;11.762;2023-12-07T01:25:39;27.90;;;14.83;;
22160;SDS011;49035;48.812;11.762;2023-12-07T01:28:04;25.10;;;13.67;;
22160;SDS011;49035;48.812;11.762;2023-12-07T01:30:30;27.70;;;14.00;;
22160;SDS011;49035;48.812;11.762;2023-12-07T01:32:55;33.03;;;14.33;;
22160;SDS011;49035;48.812;11.762;2023-12-07T01:35:21;28.47;;;13.73;;
22160;SDS011;49035;48.812;11.762;2023-12-07T01:37:47;30.93;;;14.77;;
22160;SDS011;49035;48.812;11.762;2023-12-07T01:40:12;29.13;;;13.77;;
22160;SDS011;49035;48.812;11.762;2023-12-07T01:42:39;27.13;;;13.50;;
22160;SDS011;49035;48.812;11.762;2023-12-07T01:45:06;30.73;;;14.57;;
22160;SDS011;49035;48.812;11.762;2023-12-07T01:47:32;27.77;;;14.53;;
22160;SDS011;49035;48.812;11.762;2023-12-07T01:50:00;24.40;;;14.27;;
22160;SDS011;49035;48.812;11.762;2023-12-07T01:52:29;29.53;;;15.17;;
22160;SDS011;49035;48.812;11.762;2023-12-07T01:54:55;30.13;;;15.13;;
22160;SDS011;49035;48.812;11.762;2023-12-07T01:57:21;29.57;;;14.23;;
22160;SDS011;49035;48.812;11.762;2023-12-07T01:59:48;28.17;;;14.10;;
22160;SDS011;49035;48.812;11.762;2023-12-07T02:02:15;29.07;;;15.40;;
22160;SDS011;49035;48.812;11.762;2023-12-07T02:04:40;27.40;;;15.23;;
22160;SDS011;49035;48.812;11.762;2023-12-07T02:07:06;32.83;;;16.40;;
22160;SDS011;49035;48.812;11.762;2023-12-07T02:09:32;34.33;;;16.47;;
22160;SDS011;49035;48.812;11.762;2023-12-07T02:11:58;33.07;;;15.73;;
22160;SDS011;49035;48.812;11.762;2023-12-07T02:14:25;28.73;;;16.00;;
22160;SDS011;49035;48.812;11.762;2023-12-07T02:16:52;27.97;;;15.07;;
22160;SDS011;49035;48.812;11.762;2023-12-07T02:22:05;30.77;;;14.57;;
22160;SDS011;49035;48.812;11.762;2023-12-07T02:24:37;30.70;;;15.17;;
22160;SDS011;49035;48.812;11.762;2023-12-07T02:27:09;28.87;;;14.40;;
22160;SDS011;49035;48.812;11.762;2023-12-07T02:29:34;29.33;;;14.73;;
22160;SDS011;49035;48.812;11.762;2023-12-07T02:32:00;33.43;;;14.67;;
22160;SDS011;49035;48.812;11.762;2023-12-07T02:34:25;31.33;;;16.07;;
22160;SDS011;49035;48.812;11.762;2023-12-07T02:36:51;31.97;;;15.50;;
22160;SDS011;49035;48.812;11.762;2023-12-07T02:39:20;31.03;;;15.43;;
22160;SDS011;49035;48.812;11.762;2023-12-07T02:41:47;31.13;;;14.00;;
22160;SDS011;49035;48.812;11.762;2023-12-07T02:44:14;29.17;;;14.73;;
22160;SDS011;49035;48.812;11.762;2023-12-07T02:46:40;33.47;;;15.87;;
22160;SDS011;49035;48.812;11.762;2023-12-07T02:49:06;30.80;;;14.83;;
22160;SDS011;49035;48.812;11.762;2023-12-07T02:51:31;36.27;;;15.43;;
22160;SDS011;49035;48.812;11.762;2023-12-07T02:53:57;34.90;;;17.00;;
22160;SDS011;49035;48.812;11.762;2023-12-07T02:56:22;31.93;;;15.63;;
22160;SDS011;49035;48.812;11.762;2023-12-07T02:58:48;32.63;;;16.17;;
22160;SDS011;49035;48.812;11.762;2023-12-07T03:01:13;29.83;;;16.07;;
22160;SDS011;49035;48.812;11.762;2023-12-07T03:03:39;31.77;;;15.37;;
22160;SDS011;49035;48.812;11.762;2023-12-07T03:06:07;35.07;;;15.30;;
22160;SDS011;49035;48.812;11.762;2023-12-07T03:08:32;31.20;;;15.57;;
22160;SDS011;49035;48.812;11.762;2023-12-07T03:10:58;30.93;;;15.30;;
22160;SDS011;49035;48.812;11.762;2023-12-07T03:13:23;35.40;;;16.57;;
22160;SDS011;49035;48.812;11.762;2023-12-07T03:15:49;32.30;;;16.87;;
22160;SDS011;49035;48.812;11.762;2023-12-07T03:18:14;30.80;;;16.23;;
22160;SDS011;49035;48.812;11.762;2023-12-07T03:20:40;34.80;;;16.43;;
22160;SDS011;49035;48.812;11.762;2023-12-07T03:23:06;30.87;;;15.37;;
22160;SDS011;49035;48.812;11.762;2023-12-07T03:25:32;33.80;;;15.23;;
22160;SDS011;49035;48.812;11.762;2023-12-07T03:27:57;33.73;;;15.80;;
22160;SDS011;49035;48.812;11.762;2023-12-07T03:30:23;29.77;;;15.00;;
22160;SDS011;49035;48.812;11.762;2023-12-07T03:32:48;34.33;;;17.23;;
22160;SDS011;49035;48.812;11.762;2023-12-07T03:35:14;32.17;;;16.13;;
22160;SDS011;49035;48.812;11.762;2023-12-07T03:37:39;30.77;;;15.13;;
22160;SDS011;49035;48.812;11.762;2023-12-07T03:40:05;31.73;;;16.53;;
22160;SDS011;49035;48.812;11.762;2023-12-07T03:42:31;33.30;;;15.23;;
22160;SDS011;49035;48.812;11.762;2023-12-07T03:44:57;28.43;;;14.80;;
22160;SDS011;49035;48.812;11.762;2023-12-07T03:47:22;32.63;;;15.30;;
22160;SDS011;49035;48.812;11.762;2023-12-07T03:49:48;31.17;;;15.67;;
22160;SDS011;49035;48.812;11.762;2023-12-07T03:52:13;32.33;;;15.07;;
22160;SDS011;49035;48.812;11.762;2023-12-07T03:54:39;30.73;;;15.80;;
22160;SDS011;49035;48.812;11.762;2023-12-07T03:57:04;30.87;;;16.33;;
22160;SDS011;49035;48.812;11.762;2023-12-07T03:59:30;25.43;;;14.20;;
22160;SDS011;49035;48.812;11.762;2023-12-07T04:01:55;32.50;;;15.77;;
22160;SDS011;49035;48.812;11.762;2023-12-07T04:04:21;28.63;;;14.73;;
22160;SDS011;49035;48.812;11.762;2023-12-07T04:06:47;33.10;;;15.93;;
22160;SDS011;49035;48.812;11.762;2023-12-07T04:09:13;30.47;;;16.80;;
22160;SDS011;49035;48.812;11.762;2023-12-07T04:11:38;37.50;;;17.83;;
22160;SDS011;49035;48.812;11.762;2023-12-07T04:14:04;35.17;;;17.90;;
22160;SDS011;49035;48.812;11.762;2023-12-07T04:16:30;35.23;;;17.87;;
22160;SDS011;49035;48.812;11.762;2023-12-07T04:18:55;39.43;;;19.17;;
22160;SDS011;49035;48.812;11.762;2023-12-07T04:21:21;35.50;;;18.10;;
22160;SDS011;49035;48.812;11.762;2023-12-07T04:23:47;30.80;;;15.47;;
22160;SDS011;49035;48.812;11.762;2023-12-07T04:26:12;39.10;;;18.30;;
22160;SDS011;49035;48.812;11.762;2023-12-07T04:28:39;40.40;;;18.57;;
22160;SDS011;49035;48.812;11.762;2023-12-07T04:31:05;36.13;;;17.37;;
22160;SDS011;49035;48.812;11.762;2023-12-07T04:33:30;46.83;;;18.67;;
22160;SDS011;49035;48.812;11.762;2023-12-07T04:35:56;32.70;;;15.97;;
22160;SDS011;49035;48.812;11.762;2023-12-07T04:38:21;31.60;;;15.63;;
22160;SDS011;49035;48.812;11.762;2023-12-07T04:40:47;33.87;;;16.20;;
22160;SDS011;49035;48.812;11.762;2023-12-07T04:43:12;31.20;;;14.93;;
22160;SDS011;49035;48.812;11.762;2023-12-07T04:45:38;31.90;;;16.07;;
22160;SDS011;49035;48.812;11.762;2023-12-07T04:48:04;33.23;;;15.90;;
22160;SDS011;49035;48.812;11.762;2023-12-07T04:50:30;30.53;;;14.97;;
22160;SDS011;49035;48.812;11.762;2023-12-07T04:52:55;32.53;;;16.10;;
22160;SDS011;49035;48.812;11.762;2023-12-07T04:55:22;34.37;;;15.87;;
22160;SDS011;49035;48.812;11.762;2023-12-07T04:57:47;31.20;;;14.83;;
22160;SDS011;49035;48.812;11.762;2023-12-07T05:00:13;32.87;;;16.00;;
22160;SDS011;49035;48.812;11.762;2023-12-07T05:02:39;29.13;;;14.53;;
22160;SDS011;49035;48.812;11.762;2023-12-07T05:05:05;31.20;;;15.80;;
22160;SDS011;49035;48.812;11.762;2023-12-07T05:07:30;27.83;;;15.17;;
22160;SDS011;49035;48.812;11.762;2023-12-07T05:09:56;32.47;;;15.17;;
22160;SDS011;49035;48.812;11.762;2023-12-07T05:12:22;34.10;;;17.03;;
22160;SDS011;49035;48.812;11.762;2023-12-07T05:14:47;32.93;;;16.97;;
22160;SDS011;49035;48.812;11.762;2023-12-07T05:17:13;41.27;;;18.80;;
22160;SDS011;49035;48.812;11.762;2023-12-07T05:19:39;34.53;;;17.27;;
22160;SDS011;49035;48.812;11.762;2023-12-07T05:22:05;31.33;;;16.50;;
22160;SDS011;49035;48.812;11.762;2023-12-07T05:24:30;34.60;;;17.30;;
22160;SDS011;49035;48.812;11.762;2023-12-07T05:26:59;32.60;;;16.37;;
22160;SDS011;49035;48.812;11.762;2023-12-07T05:29:24;34.30;;;17.53;;
22160;SDS011;49035;48.812;11.762;2023-12-07T05:31:50;33.97;;;17.13;;
22160;SDS011;49035;48.812;11.762;2023-12-07T05:34:16;36.70;;;18.77;;
22160;SDS011;49035;48.812;11.762;2023-12-07T05:36:42;35.83;;;16.50;;
22160;SDS011;49035;48.812;11.762;2023-12-07T05:39:08;38.60;;;18.03;;
22160;SDS011;49035;48.812;11.762;2023-12-07T05:41:34;32.97;;;17.33;;
22160;SDS011;49035;48.812;11.762;2023-12-07T05:43:59;33.07;;;17.00;;
22160;SDS011;49035;48.812;11.762;2023-12-07T05:46:26;34.37;;;17.87;;
22160;SDS011;49035;48.812;11.762;2023-12-07T05:48:52;38.80;;;18.67;;
22160;SDS011;49035;48.812;11.762;2023-12-07T05:51:18;35.83;;;17.73;;
22160;SDS011;49035;48.812;11.762;2023-12-07T05:53:45;35.70;;;18.23;;
22160;SDS011;49035;48.812;11.762;2023-12-07T05:56:11;34.97;;;16.93;;
22160;SDS011;49035;48.812;11.762;2023-12-07T05:58:37;37.23;;;17.43;;
22160;SDS011;49035;48.812;11.762;2023-12-07T06:01:02;38.60;;;18.97;;
22160;SDS011;49035;48.812;11.762;2023-12-07T06:03:29;37.13;;;17.57;;
22160;SDS011;49035;48.812;11.762;2023-12-07T06:05:55;36.17;;;17.70;;
22160;SDS011;49035;48.812;11.762;2023-12-07T06:08:20;37.57;;;17.47;;
22160;SDS011;49035;48.812;11.762;2023-12-07T06:10:46;38.80;;;18.27;;
22160;SDS011;49035;48.812;11.762;2023-12-07T06:13:12;37.00;;;18.40;;
22160;SDS011;49035;48.812;11.762;2023-12-07T06:15:38;38.03;;;16.23;;
22160;SDS011;49035;48.812;11.762;2023-12-07T06:18:04;37.33;;;17.23;;
22160;SDS011;49035;48.812;11.762;2023-12-07T06:20:30;34.77;;;17.00;;
22160;SDS011;49035;48.812;11.762;2023-12-07T06:22:56;31.70;;;16.07;;
22160;SDS011;49035;48.812;11.762;2023-12-07T06:25:22;37.90;;;18.07;;
22160;SDS011;49035;48.812;11.762;2023-12-07T06:27:48;36.90;;;18.63;;
22160;SDS011;49035;48.812;11.762;2023-12-07T06:30:14;47.43;;;22.37;;
22160;SDS011;49035;48.812;11.762;2023-12-07T06:32:40;45.20;;;22.60;;
22160;SDS011;49035;48.812;11.762;2023-12-07T06:35:05;36.10;;;17.50;;
22160;SDS011;49035;48.812;11.762;2023-12-07T06:37:32;36.50;;;17.73;;
22160;SDS011;49035;48.812;11.762;2023-12-07T06:39:58;36.43;;;18.70;;
22160;SDS011;49035;48.812;11.762;2023-12-07T06:42:25;37.07;;;18.27;;
22160;SDS011;49035;48.812;11.762;2023-12-07T06:44:53;37.43;;;18.23;;
22160;SDS011;49035;48.812;11.762;2023-12-07T06:47:18;38.43;;;18.50;;
22160;SDS011;49035;48.812;11.762;2023-12-07T06:49:44;38.73;;;17.73;;
22160;SDS011;49035;48.812;11.762;2023-12-07T06:52:13;31.60;;;16.10;;
22160;SDS011;49035;48.812;11.762;2023-12-07T06:54:38;38.73;;;17.87;;
22160;SDS011;49035;48.812;11.762;2023-12-07T06:57:04;37.83;;;18.60;;
22160;SDS011;49035;48.812;11.762;2023-12-07T06:59:31;34.50;;;16.80;;
22160;SDS011;49035;48.812;11.762;2023-12-07T07:02:00;35.30;;;17.60;;
22160;SDS011;49035;48.812;11.762;2023-12-07T07:04:26;36.50;;;19.13;;
22160;SDS011;49035;48.812;11.762;2023-12-07T07:06:52;40.40;;;18.27;;
22160;SDS011;49035;48.812;11.762;2023-12-07T07:09:17;32.67;;;16.67;;
22160;SDS011;49035;48.812;11.762;2023-12-07T07:11:49;46.43;;;19.83;;
22160;SDS011;49035;48.812;11.762;2023-12-07T07:14:15;35.37;;;17.57;;
22160;SDS011;49035;48.812;11.762;2023-12-07T07:16:41;41.43;;;18.47;;
22160;SDS011;49035;48.812;11.762;2023-12-07T07:19:07;34.90;;;18.03;;
22160;SDS011;49035;48.812;11.762;2023-12-07T07:21:33;36.10;;;18.80;;
22160;SDS011;49035;48.812;11.762;2023-12-07T07:23:58;39.10;;;18.80;;
22160;SDS011;49035;48.812;11.762;2023-12-07T07:26:24;36.80;;;18.43;;
22160;SDS011;49035;48.812;11.762;2023-12-07T07:28:50;37.20;;;18.77;;
22160;SDS011;49035;48.812;11.762;2023-12-07T07:31:16;41.00;;;19.90;;
22160;SDS011;49035;48.812;11.762;2023-12-07T07:33:43;40.53;;;18.17;;
22160;SDS011;49035;48.812;11.762;2023-12-07T07:36:08;39.50;;;18.83;;
22160;SDS011;49035;48.812;11.762;2023-12-07T07:38:34;47.13;;;20.63;;
22160;SDS011;49035;48.812;11.762;2023-12-07T07:41:00;35.70;;;18.63;;
22160;SDS011;49035;48.812;11.762;2023-12-07T07:43:26;39.03;;;18.87;;
22160;SDS011;49035;48.812;11.762;2023-12-07T07:45:51;45.10;;;19.47;;
22160;SDS011;49035;48.812;11.762;2023-12-07T07:48:17;36.37;;;18.63;;
22160;SDS011;49035;48.812;11.762;2023-12-07T07:50:42;40.33;;;19.53;;
22160;SDS011;49035;48.812;11.762;2023-12-07T07:53:08;45.20;;;21.10;;
22160;SDS011;49035;48.812;11.762;2023-12-07T07:55:34;39.83;;;19.97;;
22160;SDS011;49035;48.812;11.762;2023-12-07T07:57:59;43.23;;;20.20;;
22160;SDS011;49035;48.812;11.762;2023-12-07T08:00:25;41.53;;;20.80;;
22160;SDS011;49035;48.812;11.762;2023-12-07T08:02:51;42.13;;;20.67;;
22160;SDS011;49035;48.812;11.762;2023-12-07T08:05:17;42.03;;;20.63;;
22160;SDS011;49035;48.812;11.762;2023-12-07T08:07:42;43.60;;;20.77;;
22160;SDS011;49035;48.812;11.762;2023-12-07T08:10:08;44.50;;;19.63;;
22160;SDS011;49035;48.812;11.762;2023-12-07T08:12:34;43.70;;;19.87;;
22160;SDS011;49035;48.812;11.762;2023-12-07T08:15:00;47.77;;;21.20;;
22160;SDS011;49035;48.812;11.762;2023-12-07T08:17:25;39.83;;;19.63;;
22160;SDS011;49035;48.812;11.762;2023-12-07T08:19:51;49.03;;;22.07;;
22160;SDS011;49035;48.812;11.762;2023-12-07T08:22:17;44.40;;;22.53;;
22160;SDS011;49035;48.812;11.762;2023-12-07T08:24:43;47.07;;;22.67;;
22160;SDS011;49035;48.812;11.762;2023-12-07T08:27:09;47.10;;;22.13;;
22160;SDS011;49035;48.812;11.762;2023-12-07T08:29:34;44.63;;;22.83;;
22160;SDS011;49035;48.812;11.762;2023-12-07T08:32:01;41.53;;;22.00;;
22160;SDS011;49035;48.812;11.762;2023-12-07T08:34:27;41.30;;;21.03;;
22160;SDS011;49035;48.812;11.762;2023-12-07T08:36:53;43.90;;;20.20;;
22160;SDS011;49035;48.812;11.762;2023-12-07T08:39:19;44.83;;;21.93;;
22160;SDS011;49035;48.812;11.762;2023-12-07T08:41:44;44.20;;;21.40;;
22160;SDS011;49035;48.812;11.762;2023-12-07T08:44:10;49.80;;;23.50;;
22160;SDS011;49035;48.812;11.762;2023-12-07T08:46:36;45.37;;;22.20;;
22160;SDS011;49035;48.812;11.762;2023-12-07T08:49:02;41.20;;;22.43;;
22160;SDS011;49035;48.812;11.762;2023-12-07T08:51:28;37.97;;;20.43;;
22160;SDS011;49035;48.812;11.762;2023-12-07T08:53:53;44.10;;;23.27;;
22160;SDS011;49035;48.812;11.762;2023-12-07T08:56:19;40.23;;;21.03;;
22160;SDS011;49035;48.812;11.762;2023-12-07T08:58:45;42.10;;;22.37;;
22160;SDS011;49035;48.812;11.762;2023-12-07T09:01:10;42.50;;;21.90;;
22160;SDS011;49035;48.812;11.762;2023-12-07T09:03:36;37.83;;;21.53;;
22160;SDS011;49035;48.812;11.762;2023-12-07T09:06:02;42.35;;;21.00;;
22160;SDS011;49035;48.812;11.762;2023-12-07T09:08:28;41.67;;;21.93;;
22160;SDS011;49035;48.812;11.762;2023-12-07T09:10:54;34.67;;;21.33;;
22160;SDS011;49035;48.812;11.762;2023-12-07T09:13:19;34.90;;;21.10;;
22160;SDS011;49035;48.812;11.762;2023-12-07T09:15:45;36.20;;;21.17;;
22160;SDS011;49035;48.812;11.762;2023-12-07T09:18:10;38.37;;;21.03;;
22160;SDS011;49035;48.812;11.762;2023-12-07T09:20:36;36.93;;;19.60;;
22160;SDS011;49035;48.812;11.762;2023-12-07T09:23:10;37.60;;;21.47;;
22160;SDS011;49035;48.812;11.762;2023-12-07T09:25:41;36.73;;;19.03;;
22160;SDS011;49035;48.812;11.762;2023-12-07T09:28:07;34.43;;;18.80;;
22160;SDS011;49035;48.812;11.762;2023-12-07T09:30:33;34.10;;;20.03;;
22160;SDS011;49035;48.812;11.762;2023-12-07T09:32:59;28.60;;;16.20;;
22160;SDS011;49035;48.812;11.762;2023-12-07T09:35:28;29.67;;;17.02;;
22160;SDS011;49035;48.812;11.762;2023-12-07T09:37:53;31.57;;;17.57;;
22160;SDS011;49035;48.812;11.762;2023-12-07T09:40:22;27.97;;;17.80;;
22160;SDS011;49035;48.812;11.762;2023-12-07T09:42:49;34.83;;;19.13;;
22160;SDS011;49035;48.812;11.762;2023-12-07T09:45:15;34.30;;;17.67;;
22160;SDS011;49035;48.812;11.762;2023-12-07T09:47:45;29.73;;;16.97;;
22160;SDS011;49035;48.812;11.762;2023-12-07T09:50:13;27.50;;;15.97;;
22160;SDS011;49035;48.812;11.762;2023-12-07T09:52:41;26.40;;;15.43;;
22160;SDS011;49035;48.812;11.762;2023-12-07T09:55:07;28.57;;;16.27;;
22160;SDS011;49035;48.812;11.762;2023-12-07T09:57:33;34.23;;;18.97;;
22160;SDS011;49035;48.812;11.762;2023-12-07T09:59:59;31.90;;;18.10;;
22160;SDS011;49035;48.812;11.762;2023-12-07T10:02:25;30.73;;;17.17;;
22160;SDS011;49035;48.812;11.762;2023-12-07T10:05:06;28.80;;;17.33;;
22160;SDS011;49035;48.812;11.762;2023-12-07T10:07:35;29.83;;;17.77;;
22160;SDS011;49035;48.812;11.762;2023-12-07T10:10:03;30.77;;;17.27;;
22160;SDS011;49035;48.812;11.762;2023-12-07T10:12:33;28.83;;;16.77;;
22160;SDS011;49035;48.812;11.762;2023-12-07T10:15:00;30.43;;;17.50;;
22160;SDS011;49035;48.812;11.762;2023-12-07T10:17:44;27.60;;;16.53;;
22160;SDS011;49035;48.812;11.762;2023-12-07T10:20:17;27.47;;;16.63;;
22160;SDS011;49035;48.812;11.762;2023-12-07T10:22:44;26.80;;;15.37;;
22160;SDS011;49035;48.812;11.762;2023-12-07T10:25:11;22.50;;;14.13;;
22160;SDS011;49035;48.812;11.762;2023-12-07T10:27:38;20.63;;;12.82;;
22160;SDS011;49035;48.812;11.762;2023-12-07T10:30:08;21.43;;;13.80;;
22160;SDS011;49035;48.812;11.762;2023-12-07T10:32:39;21.58;;;13.43;;
22160;SDS011;49035;48.812;11.762;2023-12-07T10:35:08;18.42;;;11.77;;
22160;SDS011;49035;48.812;11.762;2023-12-07T10:37:34;19.63;;;12.60;;
22160;SDS011;49035;48.812;11.762;2023-12-07T10:40:00;19.08;;;11.77;;
22160;SDS011;49035;48.812;11.762;2023-12-07T10:42:27;20.40;;;11.20;;
22160;SDS011;49035;48.812;11.762;2023-12-07T10:44:58;19.67;;;11.40;;
22160;SDS011;49035;48.812;11.762;2023-12-07T10:47:31;17.00;;;11.18;;
22160;SDS011;49035;48.812;11.762;2023-12-07T10:50:00;17.27;;;10.90;;
22160;SDS011;49035;48.812;11.762;2023-12-07T10:52:30;17.33;;;11.07;;
22160;SDS011;49035;48.812;11.762;2023-12-07T10:55:05;17.27;;;10.75;;
22160;SDS011;49035;48.812;11.762;2023-12-07T10:57:33;17.60;;;11.32;;
22160;SDS011;49035;48.812;11.762;2023-12-07T11:00:00;14.20;;;10.43;;
22160;SDS011;49035;48.812;11.762;2023-12-07T11:02:26;17.13;;;10.70;;
22160;SDS011;49035;48.812;11.762;2023-12-07T11:04:54;19.25;;;11.45;;
22160;SDS011;49035;48.812;11.762;2023-12-07T11:07:22;15.57;;;10.65;;
22160;SDS011;49035;48.812;11.762;2023-12-07T11:09:57;17.38;;;11.00;;
22160;SDS011;49035;48.812;11.762;2023-12-07T11:12:35;19.30;;;11.82;;
22160;SDS011;49035;48.812;11.762;2023-12-07T11:15:15;19.87;;;12.47;;
22160;SDS011;49035;48.812;11.762;2023-12-07T11:17:55;18.75;;;12.02;;
22160;SDS011;49035;48.812;11.762;2023-12-07T11:20:21;20.20;;;12.37;;
22160;SDS011;49035;48.812;11.762;2023-12-07T11:22:56;22.13;;;13.30;;
22160;SDS011;49035;48.812;11.762;2023-12-07T11:25:22;22.55;;;14.40;;
22160;SDS011;49035;48.812;11.762;2023-12-07T11:27:48;24.08;;;14.43;;
22160;SDS011;49035;48.812;11.762;2023-12-07T11:30:32;21.63;;;13.82;;
22160;SDS011;49035;48.812;11.762;2023-12-07T11:33:03;26.65;;;13.60;;
22160;SDS011;49035;48.812;11.762;2023-12-07T11:35:29;22.40;;;13.93;;
22160;SDS011;49035;48.812;11.762;2023-12-07T11:38:02;24.23;;;14.47;;
22160;SDS011;49035;48.812;11.762;2023-12-07T11:40:37;20.77;;;13.63;;
22160;SDS011;49035;48.812;11.762;2023-12-07T11:43:05;20.43;;;13.37;;
22160;SDS011;49035;48.812;11.762;2023-12-07T11:45:38;24.77;;;14.03;;
22160;SDS011;49035;48.812;11.762;2023-12-07T11:48:15;22.70;;;14.17;;
22160;SDS011;49035;48.812;11.762;2023-12-07T11:50:53;22.37;;;14.03;;
22160;SDS011;49035;48.812;11.762;2023-12-07T11:53:28;23.35;;;14.48;;
22160;SDS011;49035;48.812;11.762;2023-12-07T11:56:01;21.77;;;13.23;;
22160;SDS011;49035;48.812;11.762;2023-12-07T11:58:28;22.30;;;14.57;;
22160;SDS011;49035;48.812;11.762;2023-12-07T12:00:55;19.88;;;13.90;;
22160;SDS011;49035;48.812;11.762;2023-12-07T12:03:21;23.35;;;14.85;;
22160;SDS011;49035;48.812;11.762;2023-12-07T12:05:50;22.70;;;14.40;;
22160;SDS011;49035;48.812;11.762;2023-12-07T12:08:16;24.60;;;15.60;;
22160;SDS011;49035;48.812;11.762;2023-12-07T12:10:43;28.42;;;16.30;;
22160;SDS011;49035;48.812;11.762;2023-12-07T12:13:09;25.60;;;15.38;;
22160;SDS011;49035;48.812;11.762;2023-12-07T12:15:36;27.67;;;15.90;;
22160;SDS011;49035;48.812;11.762;2023-12-07T12:18:03;33.03;;;18.03;;
22160;SDS011;49035;48.812;11.762;2023-12-07T12:20:28;35.00;;;19.92;;
22160;SDS011;49035;48.812;11.762;2023-12-07T12:22:54;24.60;;;15.87;;
22160;SDS011;49035;48.812;11.762;2023-12-07T12:25:24;25.38;;;14.90;;
22160;SDS011;49035;48.812;11.762;2023-12-07T12:28:01;24.80;;;14.67;;
22160;SDS011;49035;48.812;11.762;2023-12-07T12:30:28;23.77;;;14.63;;
22160;SDS011;49035;48.812;11.762;2023-12-07T12:32:55;23.60;;;14.50;;
22160;SDS011;49035;48.812;11.762;2023-12-07T12:35:21;24.93;;;15.53;;
22160;SDS011;49035;48.812;11.762;2023-12-07T12:37:47;22.40;;;14.33;;
22160;SDS011;49035;48.812;11.762;2023-12-07T12:40:15;26.90;;;15.93;;
22160;SDS011;49035;48.812;11.762;2023-12-07T12:42:45;25.67;;;14.93;;
22160;SDS011;49035;48.812;11.762;2023-12-07T12:45:13;22.58;;;13.73;;
22160;SDS011;49035;48.812;11.762;2023-12-07T12:47:40;24.33;;;13.87;;
22160;SDS011;49035;48.812;11.762;2023-12-07T12:50:06;22.17;;;13.80;;
22160;SDS011;49035;48.812;11.762;2023-12-07T12:52:33;21.00;;;13.47;;
22160;SDS011;49035;48.812;11.762;2023-12-07T12:54:58;21.92;;;12.88;;
22160;SDS011;49035;48.812;11.762;2023-12-07T12:57:24;19.63;;;13.13;;
22160;SDS011;49035;48.812;11.762;2023-12-07T12:59:50;20.43;;;13.23;;
22160;SDS011;49035;48.812;11.762;2023-12-07T13:02:16;19.63;;;11.23;;
22160;SDS011;49035;48.812;11.762;2023-12-07T13:04:44;20.17;;;10.85;;
22160;SDS011;49035;48.812;11.762;2023-12-07T13:07:10;20.53;;;10.93;;
22160;SDS011;49035;48.812;11.762;2023-12-07T13:09:37;17.83;;;10.90;;
22160;SDS011;49035;48.812;11.762;2023-12-07T13:12:03;21.87;;;10.67;;
22160;SDS011;49035;48.812;11.762;2023-12-07T13:14:29;21.27;;;12.53;;
22160;SDS011;49035;48.812;11.762;2023-12-07T13:16:55;21.77;;;11.87;;
22160;SDS011;49035;48.812;11.762;2023-12-07T13:19:20;23.53;;;13.70;;
22160;SDS011;49035;48.812;11.762;2023-12-07T13:21:46;20.67;;;12.70;;
22160;SDS011;49035;48.812;11.762;2023-12-07T13:24:12;21.83;;;12.60;;
22160;SDS011;49035;48.812;11.762;2023-12-07T13:26:38;19.40;;;12.07;;
22160;SDS011;49035;48.812;11.762;2023-12-07T13:29:04;15.07;;;9.83;;
22160;SDS011;49035;48.812;11.762;2023-12-07T13:31:30;20.63;;;12.70;;
22160;SDS011;49035;48.812;11.762;2023-12-07T13:33:55;18.17;;;11.00;;
22160;SDS011;49035;48.812;11.762;2023-12-07T13:36:21;101.57;;;51.57;;
22160;SDS011;49035;48.812;11.762;2023-12-07T13:38:50;20.75;;;12.15;;
22160;SDS011;49035;48.812;11.762;2023-12-07T13:41:16;19.00;;;10.75;;
22160;SDS011;49035;48.812;11.762;2023-12-07T13:43:42;20.57;;;12.50;;
22160;SDS011;49035;48.812;11.762;2023-12-07T13:46:07;25.93;;;13.40;;
22160;SDS011;49035;48.812;11.762;2023-12-07T13:48:34;23.20;;;12.67;;
22160;SDS011;49035;48.812;11.762;2023-12-07T13:50:59;19.97;;;12.30;;
22160;SDS011;49035;48.812;11.762;2023-12-07T13:53:25;16.17;;;10.80;;
22160;SDS011;49035;48.812;11.762;2023-12-07T13:55:50;20.07;;;11.87;;
22160;SDS011;49035;48.812;11.762;2023-12-07T13:58:16;19.43;;;11.37;;
22160;SDS011;49035;48.812;11.762;2023-12-07T14:00:42;22.30;;;12.03;;
22160;SDS011;49035;48.812;11.762;2023-12-07T14:03:11;19.23;;;11.77;;
22160;SDS011;49035;48.812;11.762;2023-12-07T14:05:40;31.70;;;16.53;;
22160;SDS011;49035;48.812;11.762;2023-12-07T14:08:06;23.33;;;15.00;;